sensor_id;sensor_type;location;lat;lon;timestamp;P1;durP1;ratioP1;P2;durP2;ratioP2
58888;SDS011;44671;49.326;8.430;2023-07-30T00:01:14;2.10;;;1.70;;
58888;SDS011;44671;49.326;8.430;2023-07-30T00:03:40;2.17;;;1.50;;
58888;SDS011;44671;49.326;8.430;2023-07-30T00:06:05;1.95;;;1.85;;
58888;SDS011;44671;49.326;8.430;2023-07-30T00:08:31;2.13;;;1.60;;
58888;SDS011;44671;49.326;8.430;2023-07-30T00:10:56;1.75;;;1.65;;
58888;SDS011;44671;49.326;8.430;2023-07-30T00:13:23;1.85;;;1.73;;
58888;SDS011;44671;49.326;8.430;2023-07-30T00:15:48;1.88;;;1.77;;
58888;SDS011;44671;49.326;8.430;2023-07-30T00:18:14;2.30;;;1.80;;
58888;SDS011;44671;49.326;8.430;2023-07-30T00:20:39;4.55;;;1.88;;
58888;SDS011;44671;49.326;8.430;2023-07-30T00:23:05;2.67;;;1.63;;
58888;SDS011;44671;49.326;8.430;2023-07-30T00:25:31;1.83;;;1.58;;
58888;SDS011;44671;49.326;8.430;2023-07-30T00:27:56;2.00;;;1.65;;
58888;SDS011;44671;49.326;8.430;2023-07-30T00:30:21;2.88;;;1.85;;
58888;SDS011;44671;49.326;8.430;2023-07-30T00:32:47;1.83;;;1.60;;
58888;SDS011;44671;49.326;8.430;2023-07-30T00:35:12;2.30;;;2.10;;
58888;SDS011;44671;49.326;8.430;2023-07-30T00:37:38;1.70;;;1.60;;
58888;SDS011;44671;49.326;8.430;2023-07-30T00:40:03;2.10;;;1.90;;
58888;SDS011;44671;49.326;8.430;2023-07-30T00:42:29;2.05;;;1.83;;
58888;SDS011;44671;49.326;8.430;2023-07-30T00:44:54;1.80;;;1.70;;
58888;SDS011;44671;49.326;8.430;2023-07-30T00:47:20;1.70;;;1.60;;
58888;SDS011;44671;49.326;8.430;2023-07-30T00:49:46;3.03;;;1.73;;
58888;SDS011;44671;49.326;8.430;2023-07-30T00:52:12;1.73;;;1.60;;
58888;SDS011;44671;49.326;8.430;2023-07-30T00:54:38;1.98;;;1.58;;
58888;SDS011;44671;49.326;8.430;2023-07-30T00:57:04;2.75;;;1.98;;
58888;SDS011;44671;49.326;8.430;2023-07-30T00:59:29;2.95;;;1.50;;
58888;SDS011;44671;49.326;8.430;2023-07-30T01:01:55;1.75;;;1.65;;
58888;SDS011;44671;49.326;8.430;2023-07-30T01:04:21;2.33;;;1.73;;
58888;SDS011;44671;49.326;8.430;2023-07-30T01:06:47;2.03;;;1.58;;
58888;SDS011;44671;49.326;8.430;2023-07-30T01:09:12;2.10;;;1.90;;
58888;SDS011;44671;49.326;8.430;2023-07-30T01:11:38;1.60;;;1.50;;
58888;SDS011;44671;49.326;8.430;2023-07-30T01:14:05;1.77;;;1.63;;
58888;SDS011;44671;49.326;8.430;2023-07-30T01:16:30;1.85;;;1.73;;
58888;SDS011;44671;49.326;8.430;2023-07-30T01:18:56;2.22;;;2.10;;
58888;SDS011;44671;49.326;8.430;2023-07-30T01:21:24;3.50;;;1.70;;
58888;SDS011;44671;49.326;8.430;2023-07-30T01:23:49;2.33;;;1.73;;
58888;SDS011;44671;49.326;8.430;2023-07-30T01:26:19;1.73;;;1.63;;
58888;SDS011;44671;49.326;8.430;2023-07-30T01:28:51;4.10;;;1.60;;
58888;SDS011;44671;49.326;8.430;2023-07-30T01:31:20;2.05;;;1.70;;
58888;SDS011;44671;49.326;8.430;2023-07-30T01:33:46;1.80;;;1.70;;
58888;SDS011;44671;49.326;8.430;2023-07-30T01:36:15;2.00;;;1.77;;
58888;SDS011;44671;49.326;8.430;2023-07-30T01:38:41;3.35;;;1.75;;
58888;SDS011;44671;49.326;8.430;2023-07-30T01:41:07;1.88;;;1.52;;
58888;SDS011;44671;49.326;8.430;2023-07-30T01:43:32;1.85;;;1.75;;
58888;SDS011;44671;49.326;8.430;2023-07-30T01:45:58;1.90;;;1.75;;
58888;SDS011;44671;49.326;8.430;2023-07-30T01:48:23;2.28;;;1.60;;
58888;SDS011;44671;49.326;8.430;2023-07-30T01:50:48;1.92;;;1.70;;
58888;SDS011;44671;49.326;8.430;2023-07-30T01:53:14;2.65;;;2.00;;
58888;SDS011;44671;49.326;8.430;2023-07-30T01:55:39;2.72;;;1.80;;
58888;SDS011;44671;49.326;8.430;2023-07-30T01:58:08;2.25;;;2.05;;
58888;SDS011;44671;49.326;8.430;2023-07-30T02:00:34;2.58;;;1.67;;
58888;SDS011;44671;49.326;8.430;2023-07-30T02:03:00;1.65;;;1.55;;
58888;SDS011;44671;49.326;8.430;2023-07-30T02:05:25;2.25;;;2.05;;
58888;SDS011;44671;49.326;8.430;2023-07-30T02:07:51;1.90;;;1.80;;
58888;SDS011;44671;49.326;8.430;2023-07-30T02:10:16;2.40;;;2.20;;
58888;SDS011;44671;49.326;8.430;2023-07-30T02:12:41;3.10;;;1.88;;
58888;SDS011;44671;49.326;8.430;2023-07-30T02:15:07;2.20;;;2.00;;
58888;SDS011;44671;49.326;8.430;2023-07-30T02:17:32;2.30;;;1.90;;
58888;SDS011;44671;49.326;8.430;2023-07-30T02:19:58;2.30;;;1.70;;
58888;SDS011;44671;49.326;8.430;2023-07-30T02:22:23;3.05;;;1.70;;
58888;SDS011;44671;49.326;8.430;2023-07-30T02:24:48;1.70;;;1.60;;
58888;SDS011;44671;49.326;8.430;2023-07-30T02:27:14;1.88;;;1.77;;
58888;SDS011;44671;49.326;8.430;2023-07-30T02:29:39;2.33;;;1.65;;
58888;SDS011;44671;49.326;8.430;2023-07-30T02:32:05;1.77;;;1.60;;
58888;SDS011;44671;49.326;8.430;2023-07-30T02:34:31;2.00;;;1.80;;
58888;SDS011;44671;49.326;8.430;2023-07-30T02:36:56;3.25;;;1.88;;
58888;SDS011;44671;49.326;8.430;2023-07-30T02:39:21;2.00;;;1.42;;
58888;SDS011;44671;49.326;8.430;2023-07-30T02:41:47;2.25;;;1.77;;
58888;SDS011;44671;49.326;8.430;2023-07-30T02:44:12;2.00;;;1.90;;
58888;SDS011;44671;49.326;8.430;2023-07-30T02:46:37;2.75;;;1.90;;
58888;SDS011;44671;49.326;8.430;2023-07-30T02:49:03;1.80;;;1.70;;
58888;SDS011;44671;49.326;8.430;2023-07-30T02:51:28;2.25;;;2.03;;
58888;SDS011;44671;49.326;8.430;2023-07-30T02:53:57;2.55;;;1.90;;
58888;SDS011;44671;49.326;8.430;2023-07-30T02:56:24;1.98;;;1.75;;
58888;SDS011;44671;49.326;8.430;2023-07-30T02:58:49;1.80;;;1.70;;
58888;SDS011;44671;49.326;8.430;2023-07-30T03:01:15;2.15;;;1.70;;
58888;SDS011;44671;49.326;8.430;2023-07-30T03:03:40;1.67;;;1.52;;
58888;SDS011;44671;49.326;8.430;2023-07-30T03:06:05;2.13;;;1.65;;
58888;SDS011;44671;49.326;8.430;2023-07-30T03:08:31;2.03;;;1.75;;
58888;SDS011;44671;49.326;8.430;2023-07-30T03:10:59;2.17;;;1.58;;
58888;SDS011;44671;49.326;8.430;2023-07-30T03:13:25;1.73;;;1.63;;
58888;SDS011;44671;49.326;8.430;2023-07-30T03:15:51;1.63;;;1.52;;
58888;SDS011;44671;49.326;8.430;2023-07-30T03:18:16;3.10;;;1.80;;
58888;SDS011;44671;49.326;8.430;2023-07-30T03:20:41;2.40;;;1.63;;
58888;SDS011;44671;49.326;8.430;2023-07-30T03:23:07;1.58;;;1.48;;
58888;SDS011;44671;49.326;8.430;2023-07-30T03:25:32;2.47;;;1.73;;
58888;SDS011;44671;49.326;8.430;2023-07-30T03:27:57;2.53;;;1.60;;
58888;SDS011;44671;49.326;8.430;2023-07-30T03:30:23;4.65;;;1.75;;
58888;SDS011;44671;49.326;8.430;2023-07-30T03:32:48;1.70;;;1.55;;
58888;SDS011;44671;49.326;8.430;2023-07-30T03:35:13;1.80;;;1.60;;
58888;SDS011;44671;49.326;8.430;2023-07-30T03:37:39;1.83;;;1.73;;
58888;SDS011;44671;49.326;8.430;2023-07-30T03:40:05;2.55;;;1.77;;
58888;SDS011;44671;49.326;8.430;2023-07-30T03:42:30;1.83;;;1.73;;
58888;SDS011;44671;49.326;8.430;2023-07-30T03:44:56;2.20;;;1.63;;
58888;SDS011;44671;49.326;8.430;2023-07-30T03:47:21;2.15;;;1.60;;
58888;SDS011;44671;49.326;8.430;2023-07-30T03:49:46;1.85;;;1.70;;
58888;SDS011;44671;49.326;8.430;2023-07-30T03:52:12;1.40;;;1.30;;
58888;SDS011;44671;49.326;8.430;2023-07-30T03:54:37;1.52;;;1.42;;
58888;SDS011;44671;49.326;8.430;2023-07-30T03:57:02;1.85;;;1.38;;
58888;SDS011;44671;49.326;8.430;2023-07-30T03:59:28;2.08;;;1.40;;
58888;SDS011;44671;49.326;8.430;2023-07-30T04:01:53;1.60;;;1.50;;
58888;SDS011;44671;49.326;8.430;2023-07-30T04:04:19;1.92;;;1.83;;
58888;SDS011;44671;49.326;8.430;2023-07-30T04:06:44;2.20;;;1.55;;
58888;SDS011;44671;49.326;8.430;2023-07-30T04:09:09;1.80;;;1.70;;
58888;SDS011;44671;49.326;8.430;2023-07-30T04:11:35;2.38;;;1.75;;
58888;SDS011;44671;49.326;8.430;2023-07-30T04:14:00;2.30;;;2.10;;
58888;SDS011;44671;49.326;8.430;2023-07-30T04:16:25;2.10;;;1.90;;
58888;SDS011;44671;49.326;8.430;2023-07-30T04:18:51;2.53;;;1.52;;
58888;SDS011;44671;49.326;8.430;2023-07-30T04:21:16;2.08;;;1.58;;
58888;SDS011;44671;49.326;8.430;2023-07-30T04:23:41;2.10;;;1.90;;
58888;SDS011;44671;49.326;8.430;2023-07-30T04:26:07;2.38;;;1.65;;
58888;SDS011;44671;49.326;8.430;2023-07-30T04:28:32;1.77;;;1.67;;
58888;SDS011;44671;49.326;8.430;2023-07-30T04:30:58;2.78;;;1.90;;
58888;SDS011;44671;49.326;8.430;2023-07-30T04:33:23;3.08;;;1.70;;
58888;SDS011;44671;49.326;8.430;2023-07-30T04:35:49;2.05;;;1.70;;
58888;SDS011;44671;49.326;8.430;2023-07-30T04:38:14;2.47;;;1.60;;
58888;SDS011;44671;49.326;8.430;2023-07-30T04:40:39;2.42;;;1.60;;
58888;SDS011;44671;49.326;8.430;2023-07-30T04:43:05;1.73;;;1.63;;
58888;SDS011;44671;49.326;8.430;2023-07-30T04:45:30;2.03;;;1.80;;
58888;SDS011;44671;49.326;8.430;2023-07-30T04:47:56;1.80;;;1.52;;
58888;SDS011;44671;49.326;8.430;2023-07-30T04:50:21;1.65;;;1.55;;
58888;SDS011;44671;49.326;8.430;2023-07-30T04:52:47;3.35;;;1.70;;
58888;SDS011;44671;49.326;8.430;2023-07-30T04:55:12;2.50;;;1.85;;
58888;SDS011;44671;49.326;8.430;2023-07-30T04:57:37;1.73;;;1.55;;
58888;SDS011;44671;49.326;8.430;2023-07-30T05:00:03;2.15;;;2.00;;
58888;SDS011;44671;49.326;8.430;2023-07-30T05:02:29;1.90;;;1.80;;
58888;SDS011;44671;49.326;8.430;2023-07-30T05:04:54;3.20;;;1.55;;
58888;SDS011;44671;49.326;8.430;2023-07-30T05:07:20;2.00;;;1.80;;
58888;SDS011;44671;49.326;8.430;2023-07-30T05:09:45;2.55;;;1.80;;
58888;SDS011;44671;49.326;8.430;2023-07-30T05:12:10;2.67;;;1.70;;
58888;SDS011;44671;49.326;8.430;2023-07-30T05:14:36;2.63;;;1.95;;
58888;SDS011;44671;49.326;8.430;2023-07-30T05:17:01;1.63;;;1.52;;
58888;SDS011;44671;49.326;8.430;2023-07-30T05:19:28;2.10;;;1.50;;
58888;SDS011;44671;49.326;8.430;2023-07-30T05:21:53;1.98;;;1.77;;
58888;SDS011;44671;49.326;8.430;2023-07-30T05:24:18;1.80;;;1.70;;
58888;SDS011;44671;49.326;8.430;2023-07-30T05:26:44;1.77;;;1.67;;
58888;SDS011;44671;49.326;8.430;2023-07-30T05:29:09;1.70;;;1.60;;
58888;SDS011;44671;49.326;8.430;2023-07-30T05:31:35;2.25;;;1.50;;
58888;SDS011;44671;49.326;8.430;2023-07-30T05:34:00;2.25;;;1.70;;
58888;SDS011;44671;49.326;8.430;2023-07-30T05:36:25;1.77;;;1.40;;
58888;SDS011;44671;49.326;8.430;2023-07-30T05:38:51;2.05;;;1.85;;
58888;SDS011;44671;49.326;8.430;2023-07-30T05:41:16;1.67;;;1.58;;
58888;SDS011;44671;49.326;8.430;2023-07-30T05:43:41;1.60;;;1.50;;
58888;SDS011;44671;49.326;8.430;2023-07-30T05:46:07;2.60;;;1.67;;
58888;SDS011;44671;49.326;8.430;2023-07-30T05:48:33;2.45;;;1.95;;
58888;SDS011;44671;49.326;8.430;2023-07-30T05:50:58;2.03;;;1.80;;
58888;SDS011;44671;49.326;8.430;2023-07-30T05:53:24;2.03;;;1.70;;
58888;SDS011;44671;49.326;8.430;2023-07-30T05:55:49;1.95;;;1.40;;
58888;SDS011;44671;49.326;8.430;2023-07-30T05:58:15;1.77;;;1.67;;
58888;SDS011;44671;49.326;8.430;2023-07-30T06:00:40;2.53;;;1.90;;
58888;SDS011;44671;49.326;8.430;2023-07-30T06:03:06;2.03;;;1.80;;
58888;SDS011;44671;49.326;8.430;2023-07-30T06:05:38;1.85;;;1.75;;
58888;SDS011;44671;49.326;8.430;2023-07-30T06:08:06;1.80;;;1.70;;
58888;SDS011;44671;49.326;8.430;2023-07-30T06:10:33;1.60;;;1.50;;
58888;SDS011;44671;49.326;8.430;2023-07-30T06:13:00;2.83;;;1.70;;
58888;SDS011;44671;49.326;8.430;2023-07-30T06:15:25;1.85;;;1.75;;
58888;SDS011;44671;49.326;8.430;2023-07-30T06:17:51;1.65;;;1.50;;
58888;SDS011;44671;49.326;8.430;2023-07-30T06:20:16;1.70;;;1.60;;
58888;SDS011;44671;49.326;8.430;2023-07-30T06:22:41;1.60;;;1.27;;
58888;SDS011;44671;49.326;8.430;2023-07-30T06:25:07;1.40;;;1.30;;
58888;SDS011;44671;49.326;8.430;2023-07-30T06:27:32;1.88;;;1.67;;
58888;SDS011;44671;49.326;8.430;2023-07-30T06:29:57;1.50;;;1.40;;
58888;SDS011;44671;49.326;8.430;2023-07-30T06:32:23;2.25;;;1.55;;
58888;SDS011;44671;49.326;8.430;2023-07-30T06:34:49;2.13;;;1.70;;
58888;SDS011;44671;49.326;8.430;2023-07-30T06:37:14;1.90;;;1.80;;
58888;SDS011;44671;49.326;8.430;2023-07-30T06:39:39;1.80;;;1.67;;
58888;SDS011;44671;49.326;8.430;2023-07-30T06:42:05;1.92;;;1.75;;
58888;SDS011;44671;49.326;8.430;2023-07-30T06:44:30;1.52;;;1.40;;
58888;SDS011;44671;49.326;8.430;2023-07-30T06:46:55;1.80;;;1.70;;
58888;SDS011;44671;49.326;8.430;2023-07-30T06:49:21;1.90;;;1.40;;
58888;SDS011;44671;49.326;8.430;2023-07-30T06:51:46;3.05;;;1.73;;
58888;SDS011;44671;49.326;8.430;2023-07-30T06:54:12;1.67;;;1.58;;
58888;SDS011;44671;49.326;8.430;2023-07-30T06:56:37;1.75;;;1.65;;
58888;SDS011;44671;49.326;8.430;2023-07-30T06:59:02;2.78;;;1.60;;
58888;SDS011;44671;49.326;8.430;2023-07-30T07:01:28;1.60;;;1.50;;
58888;SDS011;44671;49.326;8.430;2023-07-30T07:03:53;1.60;;;1.50;;
58888;SDS011;44671;49.326;8.430;2023-07-30T07:06:19;1.85;;;1.50;;
58888;SDS011;44671;49.326;8.430;2023-07-30T07:08:44;2.85;;;1.88;;
58888;SDS011;44671;49.326;8.430;2023-07-30T07:11:09;1.88;;;1.65;;
58888;SDS011;44671;49.326;8.430;2023-07-30T07:13:35;1.42;;;1.33;;
58888;SDS011;44671;49.326;8.430;2023-07-30T07:16:00;2.05;;;1.83;;
58888;SDS011;44671;49.326;8.430;2023-07-30T07:18:25;1.73;;;1.63;;
58888;SDS011;44671;49.326;8.430;2023-07-30T07:20:51;1.95;;;1.80;;
58888;SDS011;44671;49.326;8.430;2023-07-30T07:23:16;1.92;;;1.75;;
58888;SDS011;44671;49.326;8.430;2023-07-30T07:25:41;1.80;;;1.70;;
58888;SDS011;44671;49.326;8.430;2023-07-30T07:28:09;1.73;;;1.63;;
58888;SDS011;44671;49.326;8.430;2023-07-30T07:30:35;1.85;;;1.75;;
58888;SDS011;44671;49.326;8.430;2023-07-30T07:33:01;1.65;;;1.55;;
58888;SDS011;44671;49.326;8.430;2023-07-30T07:35:26;2.97;;;1.50;;
58888;SDS011;44671;49.326;8.430;2023-07-30T07:37:52;2.08;;;1.90;;
58888;SDS011;44671;49.326;8.430;2023-07-30T07:40:17;2.00;;;1.90;;
58888;SDS011;44671;49.326;8.430;2023-07-30T07:42:42;1.67;;;1.58;;
58888;SDS011;44671;49.326;8.430;2023-07-30T07:45:08;1.73;;;1.63;;
58888;SDS011;44671;49.326;8.430;2023-07-30T07:47:34;2.83;;;1.65;;
58888;SDS011;44671;49.326;8.430;2023-07-30T07:49:59;1.90;;;1.80;;
58888;SDS011;44671;49.326;8.430;2023-07-30T07:52:24;1.92;;;1.80;;
58888;SDS011;44671;49.326;8.430;2023-07-30T07:54:50;1.83;;;1.63;;
58888;SDS011;44671;49.326;8.430;2023-07-30T07:57:15;3.45;;;1.98;;
58888;SDS011;44671;49.326;8.430;2023-07-30T07:59:40;1.83;;;1.73;;
58888;SDS011;44671;49.326;8.430;2023-07-30T08:02:09;2.13;;;2.03;;
58888;SDS011;44671;49.326;8.430;2023-07-30T08:04:35;1.80;;;1.70;;
58888;SDS011;44671;49.326;8.430;2023-07-30T08:07:00;6.78;;;1.73;;
58888;SDS011;44671;49.326;8.430;2023-07-30T08:09:28;5.72;;;2.03;;
58888;SDS011;44671;49.326;8.430;2023-07-30T08:11:54;2.85;;;1.90;;
58888;SDS011;44671;49.326;8.430;2023-07-30T08:14:19;1.75;;;1.63;;
58888;SDS011;44671;49.326;8.430;2023-07-30T08:16:44;11.35;;;5.47;;
58888;SDS011;44671;49.326;8.430;2023-07-30T08:19:10;21.70;;;5.78;;
58888;SDS011;44671;49.326;8.430;2023-07-30T08:21:35;29.42;;;6.80;;
58888;SDS011;44671;49.326;8.430;2023-07-30T08:24:00;23.08;;;5.50;;
58888;SDS011;44671;49.326;8.430;2023-07-30T08:26:26;21.73;;;6.07;;
58888;SDS011;44671;49.326;8.430;2023-07-30T08:28:51;5.38;;;2.85;;
58888;SDS011;44671;49.326;8.430;2023-07-30T08:31:16;4.20;;;2.83;;
58888;SDS011;44671;49.326;8.430;2023-07-30T08:33:42;3.75;;;2.40;;
58888;SDS011;44671;49.326;8.430;2023-07-30T08:36:07;5.68;;;2.90;;
58888;SDS011;44671;49.326;8.430;2023-07-30T08:38:33;4.75;;;2.63;;
58888;SDS011;44671;49.326;8.430;2023-07-30T08:40:58;13.18;;;3.17;;
58888;SDS011;44671;49.326;8.430;2023-07-30T08:43:23;5.70;;;2.80;;
58888;SDS011;44671;49.326;8.430;2023-07-30T08:45:49;4.80;;;2.63;;
58888;SDS011;44671;49.326;8.430;2023-07-30T08:48:14;6.57;;;2.80;;
58888;SDS011;44671;49.326;8.430;2023-07-30T08:50:39;7.57;;;2.40;;
58888;SDS011;44671;49.326;8.430;2023-07-30T08:53:05;6.50;;;2.50;;
58888;SDS011;44671;49.326;8.430;2023-07-30T08:55:33;4.00;;;2.20;;
58888;SDS011;44671;49.326;8.430;2023-07-30T08:57:59;3.60;;;2.10;;
58888;SDS011;44671;49.326;8.430;2023-07-30T09:00:26;3.22;;;2.70;;
58888;SDS011;44671;49.326;8.430;2023-07-30T09:02:56;5.82;;;2.22;;
58888;SDS011;44671;49.326;8.430;2023-07-30T09:05:25;4.30;;;2.22;;
58888;SDS011;44671;49.326;8.430;2023-07-30T09:07:53;4.15;;;2.33;;
58888;SDS011;44671;49.326;8.430;2023-07-30T09:10:18;4.20;;;2.30;;
58888;SDS011;44671;49.326;8.430;2023-07-30T09:12:43;5.85;;;2.67;;
58888;SDS011;44671;49.326;8.430;2023-07-30T09:15:09;7.40;;;2.60;;
58888;SDS011;44671;49.326;8.430;2023-07-30T09:17:34;5.28;;;2.40;;
58888;SDS011;44671;49.326;8.430;2023-07-30T09:20:00;5.25;;;2.50;;
58888;SDS011;44671;49.326;8.430;2023-07-30T09:22:27;4.50;;;2.78;;
58888;SDS011;44671;49.326;8.430;2023-07-30T09:24:54;6.35;;;2.88;;
58888;SDS011;44671;49.326;8.430;2023-07-30T09:27:23;8.82;;;2.60;;
58888;SDS011;44671;49.326;8.430;2023-07-30T09:29:50;5.28;;;2.33;;
58888;SDS011;44671;49.326;8.430;2023-07-30T09:32:20;4.60;;;2.30;;
58888;SDS011;44671;49.326;8.430;2023-07-30T09:34:45;5.65;;;2.13;;
58888;SDS011;44671;49.326;8.430;2023-07-30T09:37:11;3.53;;;2.40;;
58888;SDS011;44671;49.326;8.430;2023-07-30T09:39:37;5.20;;;2.30;;
58888;SDS011;44671;49.326;8.430;2023-07-30T09:42:03;3.60;;;2.08;;
58888;SDS011;44671;49.326;8.430;2023-07-30T09:44:28;4.68;;;2.08;;
58888;SDS011;44671;49.326;8.430;2023-07-30T09:46:57;2.17;;;1.85;;
58888;SDS011;44671;49.326;8.430;2023-07-30T09:49:22;2.72;;;1.73;;
58888;SDS011;44671;49.326;8.430;2023-07-30T09:51:48;2.78;;;2.05;;
58888;SDS011;44671;49.326;8.430;2023-07-30T09:54:14;3.60;;;2.17;;
58888;SDS011;44671;49.326;8.430;2023-07-30T09:56:40;4.65;;;2.10;;
58888;SDS011;44671;49.326;8.430;2023-07-30T09:59:06;2.22;;;1.80;;
58888;SDS011;44671;49.326;8.430;2023-07-30T10:01:32;2.55;;;2.05;;
58888;SDS011;44671;49.326;8.430;2023-07-30T10:04:09;2.40;;;2.00;;
58888;SDS011;44671;49.326;8.430;2023-07-30T10:06:36;3.50;;;2.15;;
58888;SDS011;44671;49.326;8.430;2023-07-30T10:09:06;3.90;;;2.30;;
58888;SDS011;44671;49.326;8.430;2023-07-30T10:11:32;4.63;;;2.28;;
58888;SDS011;44671;49.326;8.430;2023-07-30T10:13:57;4.55;;;2.22;;
58888;SDS011;44671;49.326;8.430;2023-07-30T10:16:26;3.92;;;2.08;;
58888;SDS011;44671;49.326;8.430;2023-07-30T10:18:55;7.43;;;2.10;;
58888;SDS011;44671;49.326;8.430;2023-07-30T10:21:23;6.18;;;2.53;;
58888;SDS011;44671;49.326;8.430;2023-07-30T10:24:02;2.67;;;1.90;;
58888;SDS011;44671;49.326;8.430;2023-07-30T10:26:29;4.82;;;2.30;;
58888;SDS011;44671;49.326;8.430;2023-07-30T10:31:48;3.43;;;2.00;;
58888;SDS011;44671;49.326;8.430;2023-07-30T10:34:20;5.30;;;2.03;;
58888;SDS011;44671;49.326;8.430;2023-07-30T10:36:47;3.80;;;2.28;;
58888;SDS011;44671;49.326;8.430;2023-07-30T10:41:45;5.78;;;2.40;;
58888;SDS011;44671;49.326;8.430;2023-07-30T10:44:21;5.57;;;2.30;;
58888;SDS011;44671;49.326;8.430;2023-07-30T10:46:47;4.82;;;2.22;;
58888;SDS011;44671;49.326;8.430;2023-07-30T10:49:12;3.47;;;2.03;;
58888;SDS011;44671;49.326;8.430;2023-07-30T10:51:37;4.90;;;2.25;;
58888;SDS011;44671;49.326;8.430;2023-07-30T10:54:05;4.10;;;1.80;;
58888;SDS011;44671;49.326;8.430;2023-07-30T10:56:32;3.42;;;1.95;;
58888;SDS011;44671;49.326;8.430;2023-07-30T10:59:00;5.97;;;2.45;;
58888;SDS011;44671;49.326;8.430;2023-07-30T11:01:25;2.30;;;1.80;;
58888;SDS011;44671;49.326;8.430;2023-07-30T11:03:51;6.10;;;2.10;;
58888;SDS011;44671;49.326;8.430;2023-07-30T11:06:23;9.48;;;2.80;;
58888;SDS011;44671;49.326;8.430;2023-07-30T11:08:50;6.68;;;2.10;;
58888;SDS011;44671;49.326;8.430;2023-07-30T11:11:15;3.55;;;1.90;;
58888;SDS011;44671;49.326;8.430;2023-07-30T11:13:41;4.80;;;2.13;;
58888;SDS011;44671;49.326;8.430;2023-07-30T11:16:08;3.92;;;2.53;;
58888;SDS011;44671;49.326;8.430;2023-07-30T11:18:34;5.28;;;1.75;;
58888;SDS011;44671;49.326;8.430;2023-07-30T11:21:08;4.10;;;2.08;;
58888;SDS011;44671;49.326;8.430;2023-07-30T11:23:38;3.97;;;2.50;;
58888;SDS011;44671;49.326;8.430;2023-07-30T11:26:05;3.97;;;2.20;;
58888;SDS011;44671;49.326;8.430;2023-07-30T11:28:32;3.22;;;2.00;;
58888;SDS011;44671;49.326;8.430;2023-07-30T11:30:59;3.20;;;2.00;;
58888;SDS011;44671;49.326;8.430;2023-07-30T11:33:26;4.35;;;2.53;;
58888;SDS011;44671;49.326;8.430;2023-07-30T11:35:52;3.80;;;2.15;;
58888;SDS011;44671;49.326;8.430;2023-07-30T11:38:19;4.75;;;2.20;;
58888;SDS011;44671;49.326;8.430;2023-07-30T11:40:45;7.18;;;2.30;;
58888;SDS011;44671;49.326;8.430;2023-07-30T11:43:11;3.88;;;2.10;;
58888;SDS011;44671;49.326;8.430;2023-07-30T11:45:37;3.75;;;1.88;;
58888;SDS011;44671;49.326;8.430;2023-07-30T11:48:05;4.57;;;2.22;;
58888;SDS011;44671;49.326;8.430;2023-07-30T11:50:46;3.50;;;2.13;;
58888;SDS011;44671;49.326;8.430;2023-07-30T11:53:12;3.55;;;1.83;;
58888;SDS011;44671;49.326;8.430;2023-07-30T11:55:38;4.43;;;1.90;;
58888;SDS011;44671;49.326;8.430;2023-07-30T11:58:06;2.90;;;2.25;;
58888;SDS011;44671;49.326;8.430;2023-07-30T12:00:32;3.40;;;2.20;;
58888;SDS011;44671;49.326;8.430;2023-07-30T12:03:05;1.92;;;1.73;;
58888;SDS011;44671;49.326;8.430;2023-07-30T12:05:36;4.13;;;1.95;;
58888;SDS011;44671;49.326;8.430;2023-07-30T12:08:02;3.53;;;2.00;;
58888;SDS011;44671;49.326;8.430;2023-07-30T12:10:40;3.65;;;2.10;;
58888;SDS011;44671;49.326;8.430;2023-07-30T12:13:14;3.00;;;1.90;;
58888;SDS011;44671;49.326;8.430;2023-07-30T12:15:42;3.28;;;1.90;;
58888;SDS011;44671;49.326;8.430;2023-07-30T12:18:09;3.13;;;2.13;;
58888;SDS011;44671;49.326;8.430;2023-07-30T12:20:34;4.30;;;2.00;;
58888;SDS011;44671;49.326;8.430;2023-07-30T12:23:00;2.35;;;1.75;;
58888;SDS011;44671;49.326;8.430;2023-07-30T12:25:26;2.92;;;1.95;;
58888;SDS011;44671;49.326;8.430;2023-07-30T12:27:51;3.60;;;2.42;;
58888;SDS011;44671;49.326;8.430;2023-07-30T12:30:17;2.78;;;2.00;;
58888;SDS011;44671;49.326;8.430;2023-07-30T12:32:43;4.10;;;2.30;;
58888;SDS011;44671;49.326;8.430;2023-07-30T12:35:08;1.70;;;1.60;;
58888;SDS011;44671;49.326;8.430;2023-07-30T12:37:33;3.33;;;2.15;;
58888;SDS011;44671;49.326;8.430;2023-07-30T12:40:00;4.43;;;2.40;;
58888;SDS011;44671;49.326;8.430;2023-07-30T12:42:25;2.42;;;1.80;;
58888;SDS011;44671;49.326;8.430;2023-07-30T12:44:51;4.03;;;2.15;;
58888;SDS011;44671;49.326;8.430;2023-07-30T12:47:16;2.47;;;1.95;;
58888;SDS011;44671;49.326;8.430;2023-07-30T12:49:41;3.63;;;2.05;;
58888;SDS011;44671;49.326;8.430;2023-07-30T12:52:07;2.10;;;1.98;;
58888;SDS011;44671;49.326;8.430;2023-07-30T12:54:32;2.05;;;1.95;;
58888;SDS011;44671;49.326;8.430;2023-07-30T12:56:57;2.10;;;1.90;;
58888;SDS011;44671;49.326;8.430;2023-07-30T12:59:23;4.95;;;2.45;;
58888;SDS011;44671;49.326;8.430;2023-07-30T13:01:48;7.80;;;2.03;;
58888;SDS011;44671;49.326;8.430;2023-07-30T13:04:14;4.68;;;1.98;;
58888;SDS011;44671;49.326;8.430;2023-07-30T13:06:39;3.58;;;1.90;;
58888;SDS011;44671;49.326;8.430;2023-07-30T13:09:04;4.28;;;2.10;;
58888;SDS011;44671;49.326;8.430;2023-07-30T13:11:30;7.57;;;1.95;;
58888;SDS011;44671;49.326;8.430;2023-07-30T13:13:55;4.00;;;1.95;;
58888;SDS011;44671;49.326;8.430;2023-07-30T13:16:20;5.57;;;2.40;;
58888;SDS011;44671;49.326;8.430;2023-07-30T13:18:46;3.38;;;2.13;;
58888;SDS011;44671;49.326;8.430;2023-07-30T13:21:11;4.60;;;2.20;;
58888;SDS011;44671;49.326;8.430;2023-07-30T13:23:36;3.22;;;2.00;;
58888;SDS011;44671;49.326;8.430;2023-07-30T13:26:02;4.15;;;2.10;;
58888;SDS011;44671;49.326;8.430;2023-07-30T13:28:28;3.25;;;1.95;;
58888;SDS011;44671;49.326;8.430;2023-07-30T13:30:53;2.03;;;1.83;;
58888;SDS011;44671;49.326;8.430;2023-07-30T13:33:18;4.90;;;2.30;;
58888;SDS011;44671;49.326;8.430;2023-07-30T13:35:44;2.20;;;2.00;;
58888;SDS011;44671;49.326;8.430;2023-07-30T13:38:09;3.63;;;2.20;;
58888;SDS011;44671;49.326;8.430;2023-07-30T13:40:34;4.78;;;2.38;;
58888;SDS011;44671;49.326;8.430;2023-07-30T13:43:00;4.15;;;2.17;;
58888;SDS011;44671;49.326;8.430;2023-07-30T13:45:25;2.55;;;1.98;;
58888;SDS011;44671;49.326;8.430;2023-07-30T13:47:51;3.67;;;2.33;;
58888;SDS011;44671;49.326;8.430;2023-07-30T13:50:17;2.45;;;1.90;;
58888;SDS011;44671;49.326;8.430;2023-07-30T13:52:43;4.82;;;2.10;;
58888;SDS011;44671;49.326;8.430;2023-07-30T13:55:08;2.65;;;1.95;;
58888;SDS011;44671;49.326;8.430;2023-07-30T13:57:33;3.72;;;2.30;;
58888;SDS011;44671;49.326;8.430;2023-07-30T13:59:59;3.10;;;2.30;;
58888;SDS011;44671;49.326;8.430;2023-07-30T14:02:24;5.20;;;2.40;;
58888;SDS011;44671;49.326;8.430;2023-07-30T14:04:50;2.50;;;2.30;;
58888;SDS011;44671;49.326;8.430;2023-07-30T14:07:15;3.70;;;2.13;;
58888;SDS011;44671;49.326;8.430;2023-07-30T14:09:40;2.58;;;1.77;;
58888;SDS011;44671;49.326;8.430;2023-07-30T14:12:07;3.53;;;2.03;;
58888;SDS011;44671;49.326;8.430;2023-07-30T14:14:33;5.38;;;1.98;;
58888;SDS011;44671;49.326;8.430;2023-07-30T14:16:59;4.35;;;2.55;;
58888;SDS011;44671;49.326;8.430;2023-07-30T14:19:25;3.15;;;1.92;;
58888;SDS011;44671;49.326;8.430;2023-07-30T14:21:50;2.90;;;2.25;;
58888;SDS011;44671;49.326;8.430;2023-07-30T14:24:16;8.57;;;2.13;;
58888;SDS011;44671;49.326;8.430;2023-07-30T14:26:41;8.60;;;2.35;;
58888;SDS011;44671;49.326;8.430;2023-07-30T14:29:06;7.47;;;2.22;;
58888;SDS011;44671;49.326;8.430;2023-07-30T14:31:32;7.57;;;2.65;;
58888;SDS011;44671;49.326;8.430;2023-07-30T14:33:57;6.03;;;2.20;;
58888;SDS011;44671;49.326;8.430;2023-07-30T14:36:23;5.50;;;2.53;;
58888;SDS011;44671;49.326;8.430;2023-07-30T14:38:48;4.43;;;2.08;;
58888;SDS011;44671;49.326;8.430;2023-07-30T14:41:13;8.18;;;2.45;;
58888;SDS011;44671;49.326;8.430;2023-07-30T14:43:39;5.45;;;2.58;;
58888;SDS011;44671;49.326;8.430;2023-07-30T14:46:04;5.90;;;2.70;;